Terminal Aerodrome Forecast
Issued by NWS

Home | Current Version | Previous Version | Text Only | Print | Product List | Glossary On
Versions: 1 2 3 4 5 6 7 8 9 10 11 12 13 14
717
FTUS46 KSGX 050520
TAFSNA
TAF
KSNA 050520Z 0506/0606 VRB04KT P6SM FEW250
      TEMPO 0510/0514 3SM BR BKN005
     FM052100 20008KT P6SM SCT012
     FM060100 VRB04KT P6SM BKN018=

USA.gov is the U.S. government's official web portal to all federal, state and local government web resources and services.